createdAt,value
2023-01-26T00:00:56.556Z,61.42
2023-01-26T00:03:23.262Z,64.80
2023-01-26T00:05:49.611Z,57.03
2023-01-26T00:08:15.980Z,57.35
2023-01-26T00:10:50.040Z,58.33
2023-01-26T00:13:22.510Z,57.28
2023-01-26T00:15:49.330Z,56.90
2023-01-26T00:18:15.719Z,55.55
2023-01-26T00:20:42.096Z,60.35
2023-01-26T00:23:08.503Z,57.85
2023-01-26T00:25:34.883Z,62.20
2023-01-26T00:28:01.196Z,58.90
2023-01-26T00:30:27.595Z,61.17
2023-01-26T00:32:53.999Z,59.88
2023-01-26T00:35:20.409Z,58.35
2023-01-26T00:37:46.727Z,59.50
2023-01-26T00:40:13.418Z,58.50
2023-01-26T00:42:39.905Z,61.58
2023-01-26T00:45:06.769Z,60.97
2023-01-26T00:47:33.111Z,60.97
2023-01-26T00:49:59.425Z,63.17
2023-01-26T00:52:25.797Z,62.40
2023-01-26T00:54:52.098Z,63.20
2023-01-26T00:57:18.472Z,57.75
2023-01-26T00:59:44.804Z,62.08
2023-01-26T01:02:11.251Z,62.95
2023-01-26T01:04:37.578Z,72.20
2023-01-26T01:07:03.924Z,64.55
2023-01-26T01:09:30.291Z,74.68
2023-01-26T01:11:56.824Z,66.38
2023-01-26T01:14:23.197Z,62.75
2023-01-26T01:16:50.047Z,69.07
2023-01-26T01:19:18.156Z,67.65
2023-01-26T01:21:45.364Z,71.35
2023-01-26T01:24:12.521Z,64.35
2023-01-26T01:26:39.602Z,68.63
2023-01-26T01:29:07.184Z,65.13
2023-01-26T01:31:33.658Z,66.85
2023-01-26T01:34:00.063Z,69.35
2023-01-26T01:36:26.555Z,66.00
2023-01-26T01:38:52.960Z,70.95
2023-01-26T01:41:22.633Z,67.55
2023-01-26T01:43:50.465Z,75.55
2023-01-26T01:46:37.066Z,67.40
2023-01-26T01:49:26.239Z,66.65
2023-01-26T01:52:00.846Z,67.20
2023-01-26T01:54:39.593Z,62.75
2023-01-26T01:57:15.325Z,69.28
2023-01-26T01:59:46.316Z,69.68
2023-01-26T02:02:14.015Z,67.35
2023-01-26T02:04:41.545Z,74.47
2023-01-26T02:07:09.428Z,70.10
2023-01-26T02:09:56.725Z,70.85
2023-01-26T02:12:29.230Z,67.22
2023-01-26T02:14:57.751Z,74.75
2023-01-26T02:17:24.836Z,69.78
2023-01-26T02:20:15.529Z,71.20
2023-01-26T02:23:15.221Z,70.80
2023-01-26T02:25:49.543Z,70.35
2023-01-26T02:28:17.849Z,72.90
2023-01-26T02:30:44.940Z,68.82
2023-01-26T02:33:17.815Z,75.90
2023-01-26T02:35:44.166Z,69.75
2023-01-26T02:38:10.483Z,67.45
2023-01-26T02:40:53.506Z,71.90
2023-01-26T02:43:20.089Z,72.57
2023-01-26T02:45:46.791Z,75.13
2023-01-26T02:48:13.108Z,72.70
2023-01-26T02:50:39.455Z,71.50
2023-01-26T02:53:05.799Z,74.85
2023-01-26T02:55:32.115Z,71.55
2023-01-26T02:58:01.644Z,64.95
2023-01-26T03:00:36.989Z,66.32
2023-01-26T03:03:20.415Z,63.75
2023-01-26T03:05:47.098Z,66.23
2023-01-26T03:08:13.412Z,63.70
2023-01-26T03:10:39.799Z,70.00
2023-01-26T03:13:06.132Z,60.13
2023-01-26T03:15:42.800Z,63.90
2023-01-26T03:18:33.384Z,64.20
2023-01-26T03:21:23.616Z,60.15
2023-01-26T03:24:08.865Z,59.47
2023-01-26T03:26:54.171Z,63.90
2023-01-26T03:29:20.978Z,65.28
2023-01-26T03:31:48.010Z,74.03
2023-01-26T03:34:14.463Z,66.60
2023-01-26T03:36:41.019Z,63.13
2023-01-26T03:39:07.440Z,66.53
2023-01-26T03:41:52.295Z,72.07
2023-01-26T03:44:37.104Z,76.32
2023-01-26T03:47:21.727Z,76.13
2023-01-26T03:50:06.558Z,72.05
2023-01-26T03:52:51.258Z,78.65
2023-01-26T03:55:36.049Z,77.53
2023-01-26T03:58:02.423Z,76.05
2023-01-26T04:00:28.860Z,74.07
2023-01-26T04:03:13.785Z,80.25
2023-01-26T04:06:16.385Z,75.40
2023-01-26T04:08:44.565Z,72.78
2023-01-26T04:11:10.891Z,80.68
2023-01-26T04:13:55.554Z,76.63
2023-01-26T04:16:40.236Z,84.35
2023-01-26T04:19:25.424Z,75.75
2023-01-26T04:21:51.787Z,83.15
2023-01-26T04:24:21.798Z,78.75
2023-01-26T04:26:48.546Z,83.22
2023-01-26T04:29:16.032Z,89.57
2023-01-26T04:31:42.774Z,82.55
2023-01-26T04:34:14.324Z,89.68
2023-01-26T04:36:41.345Z,90.57
2023-01-26T04:39:08.033Z,100.13
2023-01-26T04:41:34.669Z,93.15
2023-01-26T04:44:01.320Z,89.85
2023-01-26T04:46:27.687Z,91.35
2023-01-26T04:48:54.010Z,94.00
2023-01-26T04:51:21.845Z,96.93
2023-01-26T04:53:49.334Z,94.78
2023-01-26T04:56:29.169Z,91.70
2023-01-26T04:58:56.183Z,90.53
2023-01-26T05:01:22.962Z,84.65
2023-01-26T05:03:49.857Z,96.85
2023-01-26T05:06:16.689Z,103.78
2023-01-26T05:08:43.174Z,94.97
2023-01-26T05:11:10.280Z,97.13
2023-01-26T05:13:37.181Z,89.18
2023-01-26T05:16:04.501Z,91.40
2023-01-26T05:18:30.892Z,99.18
2023-01-26T05:21:04.792Z,90.45
2023-01-26T05:25:57.371Z,77.97
2023-01-26T05:28:23.697Z,89.07
2023-01-26T05:30:50.082Z,92.57
2023-01-26T05:33:16.738Z,89.75
2023-01-26T05:35:43.079Z,85.57
2023-01-26T05:38:09.480Z,88.32
2023-01-26T05:40:35.894Z,81.18
2023-01-26T05:43:02.297Z,76.72
2023-01-26T05:45:28.769Z,80.45
2023-01-26T05:47:55.236Z,87.55
2023-01-26T05:50:21.614Z,81.93
2023-01-26T05:52:48.075Z,90.05
2023-01-26T05:55:14.392Z,76.90
2023-01-26T05:57:41.025Z,81.57
2023-01-26T06:00:08.733Z,72.90
2023-01-26T06:02:35.336Z,79.88
2023-01-26T06:05:01.694Z,80.50
2023-01-26T06:07:28.016Z,90.10
2023-01-26T06:09:54.332Z,78.72
2023-01-26T06:12:22.217Z,72.57
2023-01-26T06:14:48.601Z,76.18
2023-01-26T06:17:17.399Z,67.00
2023-01-26T06:19:53.420Z,70.60
2023-01-26T06:22:19.848Z,73.53
2023-01-26T06:24:46.590Z,75.45
2023-01-26T06:27:18.730Z,70.30
2023-01-26T06:29:45.706Z,70.30
2023-01-26T06:32:13.445Z,74.07
2023-01-26T06:34:39.852Z,67.53
2023-01-26T06:37:07.456Z,65.55
2023-01-26T06:39:33.903Z,61.47
2023-01-26T06:42:00.279Z,60.95
2023-01-26T06:44:26.601Z,62.17
2023-01-26T06:46:53.040Z,64.72
2023-01-26T06:49:19.461Z,70.90
2023-01-26T06:51:52.374Z,63.28
2023-01-26T06:54:18.767Z,64.13
2023-01-26T06:56:46.720Z,63.20
2023-01-26T06:59:13.197Z,67.53
2023-01-26T07:01:43.222Z,73.70
2023-01-26T07:04:09.740Z,66.13
2023-01-26T07:06:36.188Z,62.97
2023-01-26T07:09:02.582Z,62.15
2023-01-26T07:11:30.684Z,60.67
2023-01-26T07:13:57.448Z,64.57
2023-01-26T07:16:23.976Z,67.07
2023-01-26T07:18:50.555Z,67.18
2023-01-26T07:21:18.774Z,67.03
2023-01-26T07:23:46.371Z,67.35
2023-01-26T07:26:13.452Z,70.53
2023-01-26T07:28:40.613Z,64.63
2023-01-26T07:31:08.019Z,68.55
2023-01-26T07:33:36.106Z,67.57
2023-01-26T07:36:03.927Z,71.45
2023-01-26T07:38:35.075Z,72.32
2023-01-26T07:41:09.153Z,67.95
2023-01-26T07:43:37.128Z,76.70
2023-01-26T07:46:04.082Z,69.88
2023-01-26T07:48:30.841Z,75.22
2023-01-26T07:51:03.561Z,72.22
2023-01-26T07:53:33.814Z,72.15
2023-01-26T07:56:11.691Z,73.63
2023-01-26T07:58:38.898Z,80.38
2023-01-26T08:01:13.966Z,81.20
2023-01-26T08:03:41.631Z,73.47
2023-01-26T08:06:11.803Z,80.88
2023-01-26T08:08:42.593Z,79.80
2023-01-26T08:11:10.649Z,76.40
2023-01-26T08:13:37.649Z,84.68
2023-01-26T08:16:06.606Z,85.57
2023-01-26T08:18:33.000Z,87.72
2023-01-26T08:20:59.386Z,81.30
2023-01-26T08:23:25.999Z,85.38
2023-01-26T08:25:52.417Z,83.28
2023-01-26T08:28:21.089Z,82.72
2023-01-26T08:30:47.727Z,78.07
2023-01-26T08:33:14.155Z,74.68
2023-01-26T08:35:40.493Z,81.57
2023-01-26T08:38:06.944Z,77.28
2023-01-26T08:40:33.294Z,78.15
2023-01-26T08:43:01.549Z,79.28
2023-01-26T08:45:32.700Z,67.55
2023-01-26T08:47:59.103Z,79.45
2023-01-26T08:50:25.925Z,79.35
2023-01-26T08:52:56.035Z,77.97
2023-01-26T08:55:22.605Z,79.15
2023-01-26T08:57:52.535Z,79.72
2023-01-26T09:00:19.401Z,78.53
2023-01-26T09:02:45.991Z,72.45
2023-01-26T09:05:12.472Z,74.07
2023-01-26T09:07:38.936Z,73.45
2023-01-26T09:10:06.094Z,74.65
2023-01-26T09:12:32.469Z,69.88
2023-01-26T09:14:58.802Z,68.53
2023-01-26T09:17:25.243Z,70.63
2023-01-26T09:19:51.601Z,69.78
2023-01-26T09:22:18.003Z,64.63
2023-01-26T09:24:44.346Z,69.95
2023-01-26T09:27:10.690Z,70.53
2023-01-26T09:29:37.007Z,61.85
2023-01-26T09:32:03.552Z,65.38
2023-01-26T09:34:29.893Z,68.38
2023-01-26T09:36:56.262Z,65.35
2023-01-26T09:39:22.631Z,68.32
2023-01-26T09:42:29.639Z,63.53
2023-01-26T09:45:22.888Z,60.53
2023-01-26T09:48:41.852Z,62.45
2023-01-26T09:51:24.836Z,60.05
2023-01-26T09:53:57.245Z,59.72
2023-01-26T09:56:30.678Z,61.97
2023-01-26T09:59:17.077Z,57.70
2023-01-26T10:02:06.735Z,56.40
2023-01-26T10:04:39.158Z,59.65
2023-01-26T10:07:10.358Z,62.05
2023-01-26T10:09:38.649Z,57.45
2023-01-26T10:12:15.092Z,55.38
2023-01-26T10:14:46.705Z,53.72
2023-01-26T10:17:18.304Z,53.67
2023-01-26T10:20:32.734Z,56.38
2023-01-26T10:23:07.193Z,53.65
2023-01-26T10:25:39.386Z,53.40
2023-01-26T10:28:18.141Z,52.17
2023-01-26T10:30:46.462Z,55.38
2023-01-26T10:33:18.544Z,49.08
2023-01-26T10:35:45.586Z,54.13
2023-01-26T10:38:33.666Z,51.10
2023-01-26T10:41:01.861Z,50.28
2023-01-26T10:43:28.264Z,52.85
2023-01-26T10:45:54.713Z,51.60
2023-01-26T10:48:27.207Z,43.58
2023-01-26T10:50:54.328Z,44.35
2023-01-26T10:53:29.629Z,44.78
2023-01-26T10:56:01.059Z,46.15
2023-01-26T10:58:49.232Z,42.85
2023-01-26T11:01:18.624Z,41.50
2023-01-26T11:04:05.618Z,45.53
2023-01-26T11:06:33.025Z,43.42
2023-01-26T11:09:18.877Z,39.75
2023-01-26T11:11:58.351Z,40.83
2023-01-26T11:14:25.167Z,44.67
2023-01-26T11:17:00.289Z,40.70
2023-01-26T11:19:35.750Z,39.45
2023-01-26T11:22:08.415Z,40.35
2023-01-26T11:25:00.291Z,38.25
2023-01-26T11:27:53.590Z,38.70
2023-01-26T11:30:38.783Z,36.20
2023-01-26T11:33:30.066Z,37.17
2023-01-26T11:36:15.526Z,36.83
2023-01-26T11:39:02.705Z,39.53
2023-01-26T11:42:00.669Z,34.92
2023-01-26T11:44:48.873Z,33.88
2023-01-26T11:47:24.314Z,34.67
2023-01-26T11:50:16.888Z,37.60
2023-01-26T11:52:57.222Z,38.65
2023-01-26T11:55:38.661Z,39.63
2023-01-26T11:58:23.599Z,40.95
2023-01-26T12:00:52.986Z,37.95
2023-01-26T12:03:37.777Z,40.65
2023-01-26T12:06:14.158Z,40.35
2023-01-26T12:09:04.463Z,40.35
2023-01-26T12:11:42.305Z,35.75
2023-01-26T12:14:23.800Z,36.40
2023-01-26T12:17:17.692Z,39.58
2023-01-26T12:19:55.075Z,36.95
2023-01-26T12:22:28.464Z,39.13
2023-01-26T12:25:18.587Z,43.20
2023-01-26T12:27:58.501Z,38.83
2023-01-26T12:30:38.035Z,43.80
2023-01-26T12:33:04.879Z,43.85
2023-01-26T12:35:55.653Z,48.22
2023-01-26T12:38:45.890Z,45.33
2023-01-26T12:41:47.571Z,41.35
2023-01-26T12:44:22.528Z,42.35
2023-01-26T12:46:57.997Z,41.75
2023-01-26T12:49:32.951Z,41.47
2023-01-26T12:52:07.934Z,44.55
2023-01-26T12:54:40.657Z,47.50
2023-01-26T12:57:15.048Z,44.45
2023-01-26T12:59:48.265Z,50.97
2023-01-26T13:02:15.214Z,52.70
2023-01-26T13:04:44.388Z,56.25
2023-01-26T13:07:29.458Z,58.55
2023-01-26T13:10:22.980Z,52.42
2023-01-26T13:13:07.931Z,54.47
2023-01-26T13:15:34.447Z,54.15
2023-01-26T13:18:02.979Z,52.60
2023-01-26T13:20:43.893Z,57.65
2023-01-26T13:23:28.744Z,61.20
2023-01-26T13:26:14.980Z,59.60
2023-01-26T13:28:42.288Z,61.35
2023-01-26T13:31:10.665Z,66.70
2023-01-26T13:33:37.739Z,69.80
2023-01-26T13:36:12.013Z,67.10
2023-01-26T13:38:47.628Z,68.00
2023-01-26T13:41:19.566Z,68.90
2023-01-26T13:43:48.941Z,69.82
2023-01-26T13:46:25.697Z,66.22
2023-01-26T13:48:54.634Z,73.75
2023-01-26T13:51:25.394Z,71.05
2023-01-26T13:53:58.073Z,77.32
2023-01-26T13:56:33.910Z,71.57
2023-01-26T13:59:26.576Z,71.63
2023-01-26T14:01:55.012Z,74.78
2023-01-26T14:04:25.383Z,76.45
2023-01-26T14:07:00.931Z,75.50
2023-01-26T14:09:30.356Z,78.47
2023-01-26T14:12:00.142Z,74.40
2023-01-26T14:14:33.178Z,76.30
2023-01-26T14:17:00.435Z,74.47
2023-01-26T14:19:29.079Z,79.07
2023-01-26T14:22:00.003Z,77.55
2023-01-26T14:24:36.063Z,79.38
2023-01-26T14:27:03.888Z,77.82
2023-01-26T14:29:38.402Z,86.53
2023-01-26T14:32:14.038Z,80.43
2023-01-26T14:34:55.346Z,75.57
2023-01-26T14:37:22.736Z,76.88
2023-01-26T14:39:50.323Z,77.47
2023-01-26T14:42:19.564Z,74.75
2023-01-26T14:44:46.537Z,74.75
2023-01-26T14:47:19.103Z,77.05
2023-01-26T14:49:55.684Z,80.00
2023-01-26T14:52:35.120Z,75.07
2023-01-26T14:55:17.108Z,78.75
2023-01-26T14:57:43.597Z,77.95
2023-01-26T15:00:42.610Z,75.40
2023-01-26T15:03:19.283Z,74.75
2023-01-26T15:05:45.970Z,69.55
2023-01-26T15:08:18.475Z,75.75
2023-01-26T15:11:16.141Z,75.63
2023-01-26T15:13:45.723Z,75.78
2023-01-26T15:16:21.046Z,78.40
2023-01-26T15:19:01.678Z,77.07
2023-01-26T15:21:32.757Z,74.32
2023-01-26T15:23:59.339Z,79.40
2023-01-26T15:26:32.276Z,75.03
2023-01-26T15:29:05.838Z,77.03
2023-01-26T15:31:38.552Z,73.95
2023-01-26T15:34:06.372Z,73.70
2023-01-26T15:36:36.063Z,73.40
2023-01-26T15:39:14.332Z,72.85
2023-01-26T15:41:42.030Z,70.25
2023-01-26T15:44:19.888Z,73.68
2023-01-26T15:46:46.904Z,73.43
2023-01-26T15:49:13.992Z,68.75
2023-01-26T15:51:40.688Z,70.65
2023-01-26T15:54:10.167Z,72.90
2023-01-26T15:56:36.936Z,69.25
2023-01-26T15:59:03.422Z,68.63
2023-01-26T16:01:29.760Z,68.30
2023-01-26T16:03:56.270Z,67.32
2023-01-26T16:06:28.406Z,66.63
2023-01-26T16:08:56.213Z,71.05
2023-01-26T16:11:27.756Z,64.35
2023-01-26T16:14:03.352Z,61.83
2023-01-26T16:16:30.903Z,61.65
2023-01-26T16:18:57.367Z,66.65
2023-01-26T16:21:28.674Z,65.82
2023-01-26T16:23:55.087Z,62.78
2023-01-26T16:27:11.537Z,62.80
2023-01-26T16:29:37.978Z,60.95
2023-01-26T16:32:30.000Z,67.82
2023-01-26T16:34:56.523Z,67.70
2023-01-26T16:37:22.889Z,63.13
2023-01-26T16:39:49.254Z,64.40
2023-01-26T16:42:19.181Z,67.97
2023-01-26T16:44:46.175Z,80.38
2023-01-26T16:47:12.627Z,79.57
2023-01-26T16:49:39.045Z,63.35
2023-01-26T16:52:09.138Z,72.78
2023-01-26T16:54:43.891Z,66.30
2023-01-26T16:57:10.386Z,75.70
2023-01-26T16:59:36.853Z,62.53
2023-01-26T17:02:03.978Z,74.25
2023-01-26T17:04:30.333Z,63.30
2023-01-26T17:06:57.851Z,61.95
2023-01-26T17:09:24.593Z,60.65
2023-01-26T17:11:50.980Z,61.58
2023-01-26T17:14:17.563Z,59.08
2023-01-26T17:16:44.119Z,62.47
2023-01-26T17:19:10.483Z,67.90
2023-01-26T17:21:40.498Z,66.95
2023-01-26T17:24:07.242Z,71.35
2023-01-26T17:26:33.690Z,76.85
2023-01-26T17:29:00.029Z,85.95
2023-01-26T17:31:26.697Z,77.22
2023-01-26T17:33:54.415Z,77.60
2023-01-26T17:36:20.911Z,73.18
2023-01-26T17:38:48.266Z,71.65
2023-01-26T17:41:15.492Z,70.60
2023-01-26T17:43:41.938Z,69.70
2023-01-26T17:46:11.913Z,77.45
2023-01-26T17:48:38.790Z,80.43
2023-01-26T17:51:07.665Z,80.45
2023-01-26T17:53:37.302Z,74.35
2023-01-26T17:56:04.312Z,78.15
2023-01-26T17:58:30.720Z,87.90
2023-01-26T18:00:57.104Z,77.13
2023-01-26T18:03:26.854Z,75.93
2023-01-26T18:05:54.118Z,78.15
2023-01-26T18:08:20.948Z,107.43
2023-01-26T18:10:47.424Z,83.25
2023-01-26T18:13:14.460Z,90.85
2023-01-26T18:15:41.039Z,107.18
2023-01-26T18:18:07.483Z,97.75
2023-01-26T18:20:33.898Z,90.45
2023-01-26T18:23:00.478Z,79.70
2023-01-26T18:25:27.167Z,91.03
2023-01-26T18:27:54.551Z,92.95
2023-01-26T18:30:21.103Z,94.25
2023-01-26T18:32:47.595Z,84.93
2023-01-26T18:35:14.175Z,87.10
2023-01-26T18:37:40.588Z,83.35
2023-01-26T18:40:08.232Z,99.25
2023-01-26T18:42:34.633Z,73.88
2023-01-26T18:45:01.421Z,90.20
2023-01-26T18:47:28.640Z,84.07
2023-01-26T18:49:55.367Z,84.38
2023-01-26T18:52:22.614Z,92.97
2023-01-26T18:54:49.070Z,89.80
2023-01-26T18:57:16.400Z,90.00
2023-01-26T18:59:42.848Z,84.15
2023-01-26T19:02:13.409Z,72.85
2023-01-26T19:04:41.358Z,80.65
2023-01-26T19:07:10.026Z,73.85
2023-01-26T19:09:36.780Z,74.50
2023-01-26T19:12:05.424Z,79.18
2023-01-26T19:14:32.551Z,65.82
2023-01-26T19:16:59.908Z,65.93
2023-01-26T19:19:26.496Z,70.88
2023-01-26T19:21:53.060Z,65.18
2023-01-26T19:24:19.621Z,62.30
2023-01-26T19:26:46.354Z,64.30
2023-01-26T19:29:12.967Z,63.67
2023-01-26T19:31:39.513Z,65.72
2023-01-26T19:34:10.179Z,63.90
2023-01-26T19:36:36.992Z,63.33
2023-01-26T19:39:05.025Z,77.22
2023-01-26T19:41:31.609Z,65.57
2023-01-26T19:43:58.044Z,62.17
2023-01-26T19:46:24.498Z,62.97
2023-01-26T19:48:51.023Z,62.22
2023-01-26T19:51:20.452Z,58.17
2023-01-26T19:53:50.203Z,59.75
2023-01-26T19:56:24.015Z,62.35
2023-01-26T19:58:55.949Z,56.97
2023-01-26T20:01:23.935Z,54.83
2023-01-26T20:03:57.849Z,58.17
2023-01-26T20:06:27.086Z,56.05
2023-01-26T20:08:55.298Z,58.25
2023-01-26T20:11:25.022Z,59.75
2023-01-26T20:13:56.024Z,56.95
2023-01-26T20:16:22.844Z,56.55
2023-01-26T20:18:49.210Z,55.75
2023-01-26T20:21:15.887Z,57.15
2023-01-26T20:23:53.576Z,52.75
2023-01-26T20:26:20.959Z,53.97
2023-01-26T20:28:47.602Z,50.78
2023-01-26T20:31:17.429Z,51.83
2023-01-26T20:33:47.581Z,50.95
2023-01-26T20:36:19.183Z,49.17
2023-01-26T20:38:48.244Z,47.70
2023-01-26T20:41:17.362Z,47.88
2023-01-26T20:43:58.626Z,43.80
2023-01-26T20:46:27.713Z,43.28
2023-01-26T20:48:55.593Z,41.80
2023-01-26T20:51:25.044Z,43.10
2023-01-26T20:53:51.443Z,43.13
2023-01-26T20:56:20.532Z,46.75
2023-01-26T20:58:47.484Z,42.58
2023-01-26T21:01:17.875Z,43.38
2023-01-26T21:03:44.712Z,41.60
2023-01-26T21:06:14.102Z,42.10
2023-01-26T21:08:41.047Z,41.40
2023-01-26T21:11:11.021Z,40.97
2023-01-26T21:13:37.684Z,40.53
2023-01-26T21:16:07.472Z,40.80
2023-01-26T21:18:34.187Z,37.83
2023-01-26T21:21:04.074Z,39.47
2023-01-26T21:23:30.944Z,35.78
2023-01-26T21:26:02.878Z,39.17
2023-01-26T21:28:29.584Z,38.85
2023-01-26T21:31:04.274Z,40.35
2023-01-26T21:33:32.724Z,39.53
2023-01-26T21:36:01.738Z,38.72
2023-01-26T21:38:31.803Z,38.80
2023-01-26T21:41:29.182Z,40.25
2023-01-26T21:44:00.495Z,36.97
2023-01-26T21:46:28.027Z,37.70
2023-01-26T21:48:54.409Z,40.85
2023-01-26T21:51:59.489Z,37.40
2023-01-26T21:56:52.397Z,37.67
2023-01-26T21:59:19.127Z,36.17
2023-01-26T22:01:51.033Z,36.35
2023-01-26T22:04:29.539Z,39.25
2023-01-26T22:06:56.972Z,36.05
2023-01-26T22:09:24.233Z,35.53
2023-01-26T22:11:51.559Z,39.80
2023-01-26T22:14:20.411Z,36.97
2023-01-26T22:16:47.284Z,38.47
2023-01-26T22:19:13.673Z,41.72
2023-01-26T22:21:40.135Z,38.65
2023-01-26T22:24:09.383Z,34.70
2023-01-26T22:26:38.099Z,35.80
2023-01-26T22:29:05.056Z,37.17
2023-01-26T22:31:31.890Z,33.05
2023-01-26T22:34:00.571Z,33.42
2023-01-26T22:36:28.040Z,34.70
2023-01-26T22:38:54.511Z,34.67
2023-01-26T22:41:26.967Z,34.25
2023-01-26T22:43:55.150Z,36.80
2023-01-26T22:46:23.766Z,33.60
2023-01-26T22:48:51.146Z,32.08
2023-01-26T22:51:20.872Z,33.67
2023-01-26T22:53:52.505Z,34.60
2023-01-26T22:56:19.693Z,35.90
2023-01-26T22:59:04.191Z,33.97
2023-01-26T23:03:59.255Z,33.97
2023-01-26T23:06:26.367Z,34.15
2023-01-26T23:08:53.474Z,32.65
2023-01-26T23:11:22.841Z,34.08
2023-01-26T23:13:51.041Z,34.35
2023-01-26T23:16:17.948Z,33.53
2023-01-26T23:18:44.470Z,31.95
2023-01-26T23:21:11.363Z,32.95
2023-01-26T23:23:39.237Z,32.45
2023-01-26T23:26:05.902Z,32.17
2023-01-26T23:28:35.087Z,30.38
2023-01-26T23:31:02.111Z,28.10
2023-01-26T23:33:30.738Z,25.63
2023-01-26T23:35:57.465Z,25.60
2023-01-26T23:38:25.655Z,26.00
2023-01-26T23:40:52.713Z,22.75
2023-01-26T23:43:19.666Z,20.75
2023-01-26T23:45:48.015Z,21.98
2023-01-26T23:48:15.244Z,22.95
2023-01-26T23:50:41.735Z,20.60
2023-01-26T23:53:08.247Z,20.35
2023-01-26T23:55:35.292Z,22.05
2023-01-26T23:58:01.816Z,21.58
